Time;durP1;ratioP1;P1;durP2;ratioP2;P2;SDS_P1;SDS_P2;PMS_P1;PMS_P2;Temp;Humidity;BMP_temperature;BMP_pressure;BME280_temperature;BME280_humidity;BME280_pressure;Samples;Min_cycle;Max_cycle;Signal;HPM_P1;HPM_P2
2021/11/10 00:02:06;;;;;;;22.08;14.77;;;7.20;99.90;;;;;;5053203;28;20029;-62
2021/11/10 00:04:32;;;;;;;20.10;14.85;;;7.20;99.90;;;;;;5053354;28;20141;-59
2021/11/10 00:06:58;;;;;;;26.73;18.45;;;7.20;99.90;;;;;;5052721;28;20112;-58
2021/11/10 00:09:24;;;;;;;48.67;28.05;;;7.20;99.90;;;;;;5053040;28;20663;-60
2021/11/10 00:11:49;;;;;;;27.45;18.23;;;7.20;99.90;;;;;;5053679;28;20067;-62
2021/11/10 00:14:15;;;;;;;22.70;15.38;;;7.10;99.90;;;;;;5053611;28;20040;-61
2021/11/10 00:16:41;;;;;;;21.08;14.77;;;7.10;99.90;;;;;;5053584;28;20045;-60
2021/11/10 00:19:06;;;;;;;15.43;13.80;;;7.20;99.90;;;;;;5053497;28;20457;-60
2021/11/10 00:21:32;;;;;;;16.85;14.43;;;7.20;99.90;;;;;;5053686;28;20032;-60
2021/11/10 00:23:58;;;;;;;21.67;13.73;;;7.20;99.90;;;;;;5053480;28;20033;-61
2021/11/10 00:26:25;;;;;;;16.95;13.25;;;7.20;99.90;;;;;;5052034;28;20033;-60
2021/11/10 00:28:51;;;;;;;17.45;14.45;;;7.20;99.90;;;;;;5052884;28;20029;-61
2021/11/10 00:31:17;;;;;;;19.33;14.35;;;7.20;99.90;;;;;;5052626;28;20025;-60
2021/11/10 00:33:43;;;;;;;17.08;13.52;;;7.20;99.90;;;;;;5052369;28;20038;-57
2021/11/10 00:36:09;;;;;;;18.02;14.13;;;7.10;99.90;;;;;;5050654;28;20041;-59
2021/11/10 00:38:36;;;;;;;17.92;14.38;;;7.20;99.90;;;;;;5053050;28;20036;-60
2021/11/10 00:41:02;;;;;;;17.42;13.68;;;7.20;99.90;;;;;;5052993;28;20558;-61
2021/11/10 00:43:28;;;;;;;16.75;13.52;;;7.10;99.90;;;;;;5053447;28;20033;-60
2021/11/10 00:45:53;;;;;;;16.02;12.93;;;7.10;99.90;;;;;;5052860;28;20087;-59
2021/11/10 00:48:19;;;;;;;15.43;12.43;;;7.10;99.90;;;;;;5053454;28;20048;-60
2021/11/10 00:50:45;;;;;;;14.68;12.65;;;7.10;99.90;;;;;;5053058;28;20512;-61
2021/11/10 00:53:11;;;;;;;15.27;12.95;;;7.00;99.90;;;;;;5055413;28;20029;-58
2021/11/10 00:55:37;;;;;;;14.82;12.90;;;7.00;99.90;;;;;;5055856;28;20076;-59
2021/11/10 00:58:03;;;;;;;16.55;12.77;;;7.00;99.90;;;;;;5056673;28;20045;-60
2021/11/10 01:00:30;;;;;;;15.82;12.35;;;7.00;99.90;;;;;;5055624;28;20041;-57
2021/11/10 01:02:55;;;;;;;15.68;12.48;;;7.00;99.90;;;;;;5055949;28;20032;-59
2021/11/10 01:05:21;;;;;;;15.13;13.23;;;6.90;99.90;;;;;;5056268;28;20048;-59
2021/11/10 01:07:47;;;;;;;16.38;12.88;;;6.90;99.90;;;;;;5056544;28;20503;-58
2021/11/10 01:10:13;;;;;;;14.85;12.77;;;6.90;99.90;;;;;;5055602;28;20556;-59
2021/11/10 01:12:39;;;;;;;17.27;12.88;;;6.90;99.90;;;;;;5054705;28;20040;-60
2021/11/10 01:15:07;;;;;;;15.35;11.88;;;6.80;99.90;;;;;;5055608;28;20033;-60
2021/11/10 01:17:33;;;;;;;18.67;12.50;;;6.90;99.90;;;;;;5055117;28;20408;-59
2021/11/10 01:19:58;;;;;;;16.35;13.15;;;6.80;99.90;;;;;;5056568;28;20028;-58
2021/11/10 01:22:24;;;;;;;16.13;14.13;;;6.80;99.90;;;;;;5059656;28;20033;-62
2021/11/10 01:24:50;;;;;;;14.20;12.55;;;6.80;99.90;;;;;;5054297;28;20036;-59
2021/11/10 01:27:16;;;;;;;16.73;13.10;;;6.80;99.90;;;;;;5053946;28;20052;-58
2021/11/10 01:29:42;;;;;;;18.33;13.75;;;6.80;99.90;;;;;;5055420;28;20095;-60
2021/11/10 01:32:09;;;;;;;17.90;13.77;;;6.80;99.90;;;;;;5055483;28;20057;-61
2021/11/10 01:34:35;;;;;;;16.90;13.05;;;6.80;99.90;;;;;;5055872;28;20415;-59
2021/11/10 01:37:01;;;;;;;16.85;12.57;;;6.80;99.90;;;;;;5055933;28;20076;-59
2021/11/10 01:39:26;;;;;;;15.25;12.43;;;6.70;99.90;;;;;;5055080;28;20036;-60
2021/11/10 01:41:55;;;;;;;14.75;11.63;;;6.70;99.90;;;;;;5055426;28;20518;-61
2021/11/10 01:44:26;;;;;;;15.85;11.75;;;6.70;99.90;;;;;;5055481;28;20029;-59
2021/11/10 01:46:54;;;;;;;15.40;11.70;;;6.60;99.90;;;;;;5055623;28;20024;-58
2021/11/10 01:49:20;;;;;;;15.95;12.43;;;6.60;99.90;;;;;;5054442;28;20029;-60
2021/11/10 01:51:51;;;;;;;16.08;12.52;;;6.50;99.90;;;;;;5053298;28;20051;-59
2021/11/10 01:54:18;;;;;;;15.82;12.95;;;6.40;99.90;;;;;;5054874;28;20455;-57
2021/11/10 01:56:44;;;;;;;15.25;12.40;;;6.30;99.90;;;;;;5067972;28;20056;-59
2021/11/10 01:59:11;;;;;;;13.27;11.30;;;6.30;99.90;;;;;;5074322;28;20107;-60
2021/11/10 02:01:44;;;;;;;17.80;11.45;;;6.20;99.90;;;;;;5074284;28;20031;-62
2021/11/10 02:04:10;;;;;;;12.60;11.00;;;6.10;99.90;;;;;;5074610;28;20039;-60
2021/11/10 02:06:36;;;;;;;14.68;11.65;;;6.10;99.90;;;;;;5074853;28;20564;-61
2021/11/10 02:09:04;;;;;;;13.00;10.70;;;6.10;99.90;;;;;;5073100;28;20055;-58
2021/11/10 02:11:30;;;;;;;15.23;11.50;;;6.10;99.90;;;;;;5073873;28;20029;-58
2021/11/10 02:13:55;;;;;;;12.85;11.52;;;6.10;99.90;;;;;;5072795;28;20044;-60
2021/11/10 02:16:21;;;;;;;16.95;13.07;;;6.20;99.90;;;;;;5073635;28;20076;-60
2021/11/10 02:18:47;;;;;;;12.95;11.60;;;6.20;99.90;;;;;;5073171;28;20032;-60
2021/11/10 02:21:14;;;;;;;17.15;12.52;;;6.20;99.90;;;;;;5063585;28;20484;-57
2021/11/10 02:23:40;;;;;;;16.35;12.40;;;6.20;99.90;;;;;;5055289;28;20036;-55
2021/11/10 02:26:06;;;;;;;16.63;12.60;;;6.20;99.90;;;;;;5054531;28;20025;-57
2021/11/10 02:28:35;;;;;;;16.25;11.25;;;6.20;99.90;;;;;;5055380;28;20032;-58
2021/11/10 02:31:00;;;;;;;13.43;11.38;;;6.20;99.90;;;;;;5054000;28;20033;-59
2021/11/10 02:33:28;;;;;;;13.13;11.43;;;6.10;99.90;;;;;;5053997;28;20029;-60
2021/11/10 02:36:02;;;;;;;15.27;11.70;;;6.10;99.90;;;;;;5053491;28;20036;-60
2021/11/10 02:38:29;;;;;;;16.00;11.60;;;6.00;99.90;;;;;;5053858;28;20077;-57
2021/11/10 02:40:58;;;;;;;15.35;12.77;;;5.90;99.90;;;;;;5053683;28;20037;-59
2021/11/10 02:43:24;;;;;;;18.52;12.70;;;5.80;99.90;;;;;;5053774;28;20037;-59
2021/11/10 02:45:50;;;;;;;15.35;12.75;;;5.70;99.90;;;;;;5053266;28;20198;-58
2021/11/10 02:48:16;;;;;;;16.48;13.30;;;5.70;99.90;;;;;;5054215;28;20037;-60
2021/11/10 02:50:41;;;;;;;21.35;16.30;;;5.70;99.90;;;;;;5054289;28;20032;-60
2021/11/10 02:53:07;;;;;;;24.38;17.42;;;5.70;99.90;;;;;;5052366;28;20108;-59
2021/11/10 02:55:33;;;;;;;22.40;14.98;;;5.60;99.90;;;;;;5052692;28;20084;-59
2021/11/10 02:57:59;;;;;;;17.95;13.43;;;5.60;99.90;;;;;;5067899;28;20071;-60
2021/11/10 03:00:25;;;;;;;17.15;12.88;;;5.60;99.90;;;;;;5060038;28;20709;-60
2021/11/10 03:02:51;;;;;;;17.65;12.75;;;5.60;99.90;;;;;;5053316;28;20082;-60
2021/11/10 03:05:17;;;;;;;15.85;13.43;;;5.60;99.90;;;;;;5053724;28;20037;-61
2021/11/10 03:07:43;;;;;;;19.08;13.48;;;5.70;99.90;;;;;;5051053;28;20021;-57
2021/11/10 03:10:09;;;;;;;15.27;12.27;;;5.70;99.90;;;;;;5052966;28;20198;-60
2021/11/10 03:12:35;;;;;;;16.73;12.60;;;5.70;99.90;;;;;;5051465;28;20032;-60
2021/11/10 03:15:01;;;;;;;18.33;12.45;;;5.70;99.90;;;;;;5052261;28;20045;-62
2021/11/10 03:17:27;;;;;;;14.85;12.00;;;5.60;99.90;;;;;;5053426;28;20044;-60
2021/11/10 03:19:53;;;;;;;16.00;12.30;;;5.50;99.90;;;;;;5053791;28;20391;-61
2021/11/10 03:22:19;;;;;;;14.82;11.68;;;5.50;99.90;;;;;;5053887;28;20040;-57
2021/11/10 03:24:45;;;;;;;16.83;13.75;;;5.40;99.90;;;;;;5055029;28;20021;-60
2021/11/10 03:27:11;;;;;;;16.27;12.70;;;5.40;99.90;;;;;;5053887;28;20029;-60
2021/11/10 03:29:37;;;;;;;18.85;14.63;;;5.30;99.90;;;;;;5054275;28;20655;-59
2021/11/10 03:32:04;;;;;;;16.40;13.57;;;5.30;99.90;;;;;;5053410;28;20106;-59
2021/11/10 03:34:30;;;;;;;17.98;14.90;;;5.30;99.90;;;;;;5052776;28;20049;-58
2021/11/10 03:36:55;;;;;;;17.02;15.23;;;5.30;99.90;;;;;;5052437;28;20087;-59
2021/11/10 03:39:21;;;;;;;21.65;15.27;;;5.40;99.90;;;;;;5053222;28;20127;-58
2021/11/10 03:41:47;;;;;;;18.08;15.00;;;5.40;99.90;;;;;;5052761;28;20120;-59
2021/11/10 03:44:13;;;;;;;17.23;13.38;;;5.40;99.90;;;;;;5052939;28;20029;-59
2021/11/10 03:46:40;;;;;;;16.88;14.57;;;5.40;99.90;;;;;;5053787;28;20033;-61
2021/11/10 03:49:06;;;;;;;18.30;15.38;;;5.40;99.90;;;;;;5053719;28;20111;-61
2021/11/10 03:51:31;;;;;;;21.67;16.23;;;5.40;99.90;;;;;;5053413;28;20056;-60
2021/11/10 03:53:57;;;;;;;21.10;16.88;;;5.40;99.90;;;;;;5053457;28;20668;-55
2021/11/10 03:56:23;;;;;;;21.58;17.50;;;5.40;99.90;;;;;;5062205;28;20028;-60
2021/11/10 03:58:49;;;;;;;21.95;17.50;;;5.40;99.90;;;;;;5071138;28;20040;-59
2021/11/10 04:01:14;;;;;;;19.63;16.75;;;5.40;99.90;;;;;;5056677;28;20021;-60
2021/11/10 04:03:40;;;;;;;23.45;17.38;;;5.40;99.90;;;;;;5052662;28;20068;-60
2021/11/10 04:06:08;;;;;;;23.60;17.80;;;5.40;99.90;;;;;;5053174;28;20116;-60
2021/11/10 04:08:34;;;;;;;21.33;16.60;;;5.40;99.90;;;;;;5052799;28;20040;-59
2021/11/10 04:11:00;;;;;;;24.48;17.05;;;5.50;99.90;;;;;;5052063;28;20508;-59
2021/11/10 04:13:28;;;;;;;21.33;16.98;;;5.50;99.90;;;;;;5052760;28;20421;-58
2021/11/10 04:15:54;;;;;;;21.58;16.13;;;5.40;99.90;;;;;;5053332;28;20069;-58
2021/11/10 04:18:20;;;;;;;23.60;17.02;;;5.50;99.90;;;;;;5052794;28;20087;-60
2021/11/10 04:20:45;;;;;;;19.35;16.42;;;5.40;99.90;;;;;;5050201;28;20044;-60
2021/11/10 04:23:11;;;;;;;21.20;15.60;;;5.40;99.90;;;;;;5054482;28;20037;-61
2021/11/10 04:25:37;;;;;;;21.20;15.98;;;5.30;99.90;;;;;;5056214;28;20051;-58
2021/11/10 04:28:03;;;;;;;21.15;15.98;;;5.30;99.90;;;;;;5056593;28;20032;-60
2021/11/10 04:30:29;;;;;;;20.20;16.08;;;5.30;99.90;;;;;;5056607;28;20033;-59
2021/11/10 04:32:55;;;;;;;17.90;14.52;;;5.30;99.90;;;;;;5055611;28;20086;-57
2021/11/10 04:35:20;;;;;;;20.70;16.73;;;5.30;99.90;;;;;;5055844;28;20029;-58
2021/11/10 04:37:46;;;;;;;30.35;16.05;;;5.20;99.90;;;;;;5056206;28;20047;-59
2021/11/10 04:40:13;;;;;;;19.42;15.90;;;5.20;99.90;;;;;;5055103;28;20044;-60
2021/11/10 04:42:40;;;;;;;20.52;15.80;;;5.10;99.90;;;;;;5056071;28;20219;-58
2021/11/10 04:45:09;;;;;;;19.20;14.20;;;5.20;99.90;;;;;;5057218;28;20538;-60
2021/11/10 04:47:36;;;;;;;17.63;14.90;;;5.20;99.90;;;;;;5055200;28;20025;-61
2021/11/10 04:50:05;;;;;;;16.98;14.07;;;5.10;99.90;;;;;;5053732;28;20029;-61
2021/11/10 04:52:32;;;;;;;18.65;14.45;;;5.10;99.90;;;;;;5054821;28;20035;-58
2021/11/10 04:54:57;;;;;;;20.70;14.30;;;5.20;99.90;;;;;;5055569;28;20048;-60
2021/11/10 04:57:23;;;;;;;23.58;14.02;;;5.20;99.90;;;;;;5072794;28;20040;-57
2021/11/10 04:59:49;;;;;;;19.02;15.85;;;5.20;99.90;;;;;;5076159;28;20672;-61
2021/11/10 05:04:41;;;;;;;20.77;14.52;;;5.10;99.90;;;;;;5056470;28;20481;-61
2021/11/10 05:07:10;;;;;;;16.73;13.75;;;5.00;99.90;;;;;;5055614;28;20075;-60
2021/11/10 05:09:36;;;;;;;15.65;12.90;;;5.10;99.90;;;;;;5055364;28;20037;-60
2021/11/10 05:12:02;;;;;;;14.75;13.10;;;5.00;99.90;;;;;;5053367;28;20518;-60
2021/11/10 05:14:27;;;;;;;19.13;14.05;;;4.90;99.90;;;;;;5056046;28;20040;-62
2021/11/10 05:16:53;;;;;;;14.88;12.13;;;4.90;99.90;;;;;;5054405;28;20095;-61
2021/11/10 05:19:19;;;;;;;15.43;12.63;;;4.90;99.90;;;;;;5055517;28;20041;-58
2021/11/10 05:21:45;;;;;;;17.25;14.80;;;4.90;99.90;;;;;;5050455;28;20034;-61
2021/11/10 05:24:11;;;;;;;18.35;14.80;;;4.90;99.90;;;;;;5050753;28;20033;-61
2021/11/10 05:26:38;;;;;;;19.40;14.80;;;4.80;99.90;;;;;;5052152;28;20040;-59
2021/11/10 05:29:05;;;;;;;19.13;13.68;;;4.90;99.90;;;;;;5054644;28;20120;-59
2021/11/10 05:31:51;;;;;;;20.58;14.18;;;4.90;99.90;;;;;;5062524;28;20407;-63
2021/11/10 05:34:16;;;;;;;17.83;14.65;;;4.90;99.90;;;;;;5056973;28;20033;-62
2021/11/10 05:36:42;;;;;;;16.83;14.02;;;4.90;99.90;;;;;;5048906;28;20060;-62
2021/11/10 05:39:08;;;;;;;21.05;14.80;;;4.90;99.90;;;;;;5035530;28;20034;-63
2021/11/10 05:41:34;;;;;;;17.85;13.93;;;4.70;99.90;;;;;;5035450;28;20029;-63
2021/11/10 05:44:00;;;;;;;19.90;14.45;;;4.70;99.90;;;;;;5055499;28;20028;-64
2021/11/10 05:46:25;;;;;;;18.30;14.05;;;4.60;99.90;;;;;;5065693;28;20037;-65
2021/11/10 05:48:51;;;;;;;20.35;14.05;;;4.60;99.90;;;;;;5064971;28;20025;-64
2021/11/10 05:51:17;;;;;;;20.55;14.18;;;4.50;99.90;;;;;;5058380;28;20029;-62
2021/11/10 05:53:44;;;;;;;24.88;13.85;;;4.50;99.90;;;;;;5049041;28;20496;-63
2021/11/10 05:56:18;;;;;;;21.63;14.43;;;4.40;99.90;;;;;;5055550;28;20036;-67
2021/11/10 05:58:43;;;;;;;19.30;14.60;;;4.40;99.90;;;;;;5065995;28;20029;-63
2021/11/10 06:01:09;;;;;;;21.60;14.93;;;4.40;99.90;;;;;;5053784;28;20033;-64
2021/11/10 06:03:35;;;;;;;20.27;14.52;;;4.50;99.90;;;;;;5053635;28;20036;-64
2021/11/10 06:06:01;;;;;;;74.45;19.45;;;4.60;99.90;;;;;;5054968;28;20496;-62
2021/11/10 06:08:27;;;;;;;29.15;15.13;;;4.50;99.90;;;;;;5057261;28;20453;-62
2021/11/10 06:10:52;;;;;;;20.27;14.18;;;4.50;99.90;;;;;;5053880;28;20045;-64
2021/11/10 06:13:18;;;;;;;17.90;13.00;;;4.40;99.90;;;;;;5055509;28;20503;-59
2021/11/10 06:15:43;;;;;;;17.52;13.50;;;4.40;99.90;;;;;;5054139;28;20037;-57
2021/11/10 06:18:10;;;;;;;19.52;14.00;;;4.50;99.90;;;;;;5054910;28;20029;-59
2021/11/10 06:20:36;;;;;;;15.95;13.65;;;4.50;99.90;;;;;;5060205;28;20090;-60
2021/11/10 06:23:05;;;;;;;17.65;12.82;;;4.50;99.90;;;;;;5053559;28;20036;-63
2021/11/10 06:25:31;;;;;;;18.60;13.38;;;4.50;99.90;;;;;;5054276;28;20029;-58
2021/11/10 06:27:57;;;;;;;17.33;13.68;;;4.50;99.90;;;;;;5055677;28;20037;-60
2021/11/10 06:30:25;;;;;;;15.30;13.60;;;4.50;99.90;;;;;;5054578;28;20082;-60
2021/11/10 06:32:51;;;;;;;16.13;13.75;;;4.40;99.90;;;;;;5053740;28;20497;-60
2021/11/10 06:35:17;;;;;;;17.30;14.48;;;4.40;99.90;;;;;;5048661;28;20061;-63
2021/11/10 06:37:43;;;;;;;16.23;13.50;;;4.30;99.90;;;;;;5054012;28;20033;-61
2021/11/10 06:40:10;;;;;;;16.65;13.25;;;4.30;99.90;;;;;;5053718;28;20036;-63
2021/11/10 06:42:37;;;;;;;15.07;13.10;;;4.20;99.90;;;;;;5052480;28;20039;-63
2021/11/10 06:45:03;;;;;;;17.58;14.20;;;4.20;99.90;;;;;;5053833;28;20032;-64
2021/11/10 06:47:29;;;;;;;17.48;13.25;;;4.30;99.90;;;;;;5052510;28;20495;-60
2021/11/10 06:49:55;;;;;;;16.25;13.07;;;4.40;99.90;;;;;;5053226;28;20028;-60
2021/11/10 06:52:21;;;;;;;19.02;14.20;;;4.40;99.90;;;;;;5053723;28;20029;-60
2021/11/10 06:54:50;;;;;;;20.27;14.90;;;4.30;99.90;;;;;;5054438;28;20115;-61
2021/11/10 06:57:16;;;;;;;18.58;13.00;;;4.10;99.90;;;;;;5053908;28;20033;-60
2021/11/10 06:59:42;;;;;;;18.70;13.90;;;4.20;99.90;;;;;;5053231;28;20033;-63
2021/11/10 07:02:08;;;;;;;17.58;13.80;;;4.20;99.90;;;;;;5053889;28;20029;-58
2021/11/10 07:04:34;;;;;;;16.58;12.18;;;4.30;99.90;;;;;;5054603;28;20408;-58
2021/11/10 07:07:00;;;;;;;17.02;13.27;;;4.30;99.90;;;;;;5054102;28;20388;-60
2021/11/10 07:09:25;;;;;;;18.45;14.30;;;4.40;99.90;;;;;;5055265;28;20025;-60
2021/11/10 07:11:51;;;;;;;15.95;13.55;;;4.50;99.90;;;;;;5053679;28;20059;-60
2021/11/10 07:14:17;;;;;;;23.77;15.20;;;4.60;99.90;;;;;;5053529;28;20039;-61
2021/11/10 07:16:42;;;;;;;27.95;20.42;;;4.60;99.90;;;;;;5052275;28;20099;-61
2021/11/10 07:19:08;;;;;;;31.10;19.90;;;4.60;99.90;;;;;;5052776;28;20040;-62
2021/11/10 07:21:34;;;;;;;29.92;19.02;;;4.70;99.90;;;;;;5058256;28;20025;-61
2021/11/10 07:24:00;;;;;;;81.63;45.47;;;4.70;99.90;;;;;;5053300;28;20035;-61
2021/11/10 07:26:25;;;;;;;82.78;29.73;;;4.70;99.90;;;;;;5053858;28;20029;-60
2021/11/10 07:28:52;;;;;;;20.90;15.15;;;4.70;99.90;;;;;;5053205;28;20037;-62
2021/11/10 07:31:18;;;;;;;17.20;13.77;;;4.60;99.90;;;;;;5052896;28;20033;-61
2021/11/10 07:33:43;;;;;;;20.25;14.63;;;4.50;99.90;;;;;;5052403;28;20040;-56
2021/11/10 07:36:09;;;;;;;18.65;13.65;;;4.60;99.90;;;;;;5051869;28;20056;-60
2021/11/10 07:38:39;;;;;;;22.77;14.75;;;4.60;99.90;;;;;;5053595;28;20051;-59
2021/11/10 07:41:07;;;;;;;21.27;13.57;;;4.60;99.90;;;;;;5054709;28;20055;-58
2021/11/10 07:43:33;;;;;;;23.40;15.00;;;4.70;99.90;;;;;;5056763;28;20039;-59
2021/11/10 07:46:05;;;;;;;21.35;15.00;;;4.80;99.90;;;;;;5055564;28;20025;-60
2021/11/10 07:48:31;;;;;;;21.77;14.32;;;4.70;99.90;;;;;;5056333;28;20116;-58
2021/11/10 07:50:57;;;;;;;20.60;14.80;;;4.70;99.90;;;;;;5053696;28;20063;-61
2021/11/10 07:53:23;;;;;;;23.52;15.32;;;4.70;99.90;;;;;;5053678;28;20044;-60
2021/11/10 07:55:49;;;;;;;17.48;14.57;;;4.80;99.90;;;;;;5052046;28;20400;-60
2021/11/10 07:58:14;;;;;;;22.52;14.43;;;4.80;99.90;;;;;;5055235;28;20511;-60
2021/11/10 08:00:42;;;;;;;22.02;17.58;;;4.90;99.90;;;;;;5057406;28;20033;-60
2021/11/10 08:03:08;;;;;;;28.63;20.17;;;4.90;99.90;;;;;;5057133;28;20033;-61
2021/11/10 08:05:35;;;;;;;25.73;18.45;;;5.00;99.90;;;;;;5058122;28;20061;-59
2021/11/10 08:08:01;;;;;;;25.52;15.90;;;5.10;99.90;;;;;;5058011;28;20033;-60
2021/11/10 08:10:26;;;;;;;18.00;15.05;;;5.10;99.90;;;;;;5055841;28;20500;-60
2021/11/10 08:12:52;;;;;;;18.15;14.25;;;5.20;99.90;;;;;;5057778;28;20037;-60
2021/11/10 08:15:18;;;;;;;18.30;15.52;;;5.30;99.90;;;;;;5058038;28;20127;-60
2021/11/10 08:17:44;;;;;;;19.23;14.90;;;5.40;99.90;;;;;;5039206;28;20051;-57
2021/11/10 08:20:13;;;;;;;16.70;14.48;;;5.50;99.90;;;;;;5059515;28;20031;-60
2021/11/10 08:22:39;;;;;;;16.58;13.55;;;5.50;99.90;;;;;;5059332;28;20106;-57
2021/11/10 08:25:07;;;;;;;28.45;16.85;;;5.50;99.90;;;;;;5055112;28;20477;-61
2021/11/10 08:27:35;;;;;;;22.75;18.30;;;5.40;99.90;;;;;;5055911;28;20071;-61
2021/11/10 08:30:05;;;;;;;23.73;17.80;;;5.50;99.90;;;;;;5057100;28;20033;-58
2021/11/10 08:32:32;;;;;;;20.90;15.95;;;5.30;99.90;;;;;;5057324;28;20087;-60
2021/11/10 08:34:58;;;;;;;19.13;15.70;;;5.40;99.90;;;;;;5057681;28;20541;-61
2021/11/10 08:37:24;;;;;;;23.33;16.10;;;5.60;99.90;;;;;;5057049;28;20037;-58
2021/11/10 08:39:49;;;;;;;27.17;18.33;;;5.60;99.90;;;;;;5056187;28;20396;-61
2021/11/10 08:42:15;;;;;;;28.83;17.83;;;5.70;99.90;;;;;;5055600;28;20055;-60
2021/11/10 08:44:45;;;;;;;21.65;18.13;;;5.70;99.90;;;;;;5055050;28;20021;-62
2021/11/10 08:47:12;;;;;;;18.55;15.90;;;5.50;99.90;;;;;;5055395;28;20033;-60
2021/11/10 08:49:38;;;;;;;17.88;15.18;;;5.50;99.90;;;;;;5055868;28;20017;-60
2021/11/10 08:52:07;;;;;;;21.50;15.88;;;5.60;99.90;;;;;;5055757;28;20107;-58
2021/11/10 08:54:33;;;;;;;23.15;16.65;;;5.70;99.90;;;;;;5056931;28;20036;-61
2021/11/10 08:56:59;;;;;;;24.13;15.68;;;5.80;99.90;;;;;;5056554;28;20102;-61
2021/11/10 08:59:26;;;;;;;22.33;14.70;;;5.70;99.90;;;;;;5037452;28;20025;-61
2021/11/10 09:01:53;;;;;;;17.48;13.80;;;5.80;99.90;;;;;;5055777;28;20043;-60
2021/11/10 09:04:21;;;;;;;16.88;14.68;;;5.60;99.90;;;;;;5055345;28;20405;-62
2021/11/10 09:06:47;;;;;;;22.90;15.15;;;5.60;99.90;;;;;;5054579;28;20567;-60
2021/11/10 09:09:14;;;;;;;25.48;14.98;;;5.70;99.90;;;;;;5055239;28;20049;-59
2021/11/10 09:11:40;;;;;;;23.65;17.23;;;5.80;99.90;;;;;;5056144;28;20495;-62
2021/11/10 09:14:05;;;;;;;19.80;14.75;;;5.90;99.90;;;;;;5055440;28;20033;-59
2021/11/10 09:16:31;;;;;;;21.13;13.57;;;5.90;99.90;;;;;;5056524;28;20044;-60
2021/11/10 09:18:58;;;;;;;18.25;13.15;;;6.00;99.90;;;;;;5055811;28;20116;-62
2021/11/10 09:21:23;;;;;;;20.70;13.98;;;6.00;99.90;;;;;;5061669;28;20033;-62
2021/11/10 09:23:49;;;;;;;17.50;13.23;;;5.90;99.90;;;;;;5055801;28;20037;-60
2021/11/10 09:26:15;;;;;;;23.38;14.43;;;6.10;99.90;;;;;;5055929;28;20029;-62
2021/11/10 09:28:42;;;;;;;21.35;13.27;;;6.20;99.90;;;;;;5055829;28;20036;-61
2021/11/10 09:31:11;;;;;;;21.25;13.23;;;6.40;99.90;;;;;;5055255;28;20033;-61
2021/11/10 09:33:40;;;;;;;17.45;12.25;;;6.40;99.90;;;;;;5055733;28;20029;-57
2021/11/10 09:36:07;;;;;;;17.10;12.40;;;6.40;99.90;;;;;;5055555;28;20032;-62
2021/11/10 09:38:34;;;;;;;21.60;12.20;;;6.40;99.90;;;;;;5055893;28;20029;-62
2021/11/10 09:41:01;;;;;;;16.10;12.32;;;6.40;99.90;;;;;;5053957;28;20037;-59
2021/11/10 09:43:37;;;;;;;18.77;12.88;;;6.50;99.90;;;;;;5054926;28;20025;-61
2021/11/10 09:46:05;;;;;;;18.77;13.07;;;6.50;99.90;;;;;;5054110;28;20037;-60
2021/11/10 09:48:30;;;;;;;18.33;12.60;;;6.50;99.90;;;;;;5055221;28;20025;-62
2021/11/10 09:50:56;;;;;;;18.98;14.35;;;6.60;99.90;;;;;;5055243;28;20040;-59
2021/11/10 09:53:23;;;;;;;17.92;13.05;;;6.50;99.90;;;;;;5054902;28;20036;-59
2021/11/10 09:55:49;;;;;;;18.27;13.10;;;6.60;99.90;;;;;;5053749;28;20036;-61
2021/11/10 09:58:17;;;;;;;20.10;12.95;;;6.60;99.90;;;;;;5054697;28;20029;-59
2021/11/10 10:00:55;;;;;;;18.10;13.85;;;6.90;99.90;;;;;;5054541;28;20126;-59
2021/11/10 10:03:21;;;;;;;15.75;12.95;;;7.10;99.90;;;;;;5054978;28;20032;-61
2021/11/10 10:05:49;;;;;;;15.88;12.98;;;7.30;99.90;;;;;;5054150;28;20040;-60
2021/11/10 10:08:16;;;;;;;21.25;14.40;;;7.40;99.90;;;;;;5055048;28;20021;-59
2021/11/10 10:10:43;;;;;;;25.35;13.73;;;7.30;99.90;;;;;;5054775;28;20116;-61
2021/11/10 10:13:09;;;;;;;17.02;12.90;;;7.40;99.90;;;;;;5055120;28;20396;-59
2021/11/10 10:15:36;;;;;;;21.85;13.07;;;7.40;99.90;;;;;;5054920;28;20124;-59
2021/11/10 10:18:14;;;;;;;20.45;13.68;;;7.40;99.90;;;;;;5056137;28;20083;-61
2021/11/10 10:20:41;;;;;;;19.50;13.30;;;7.50;99.90;;;;;;5059572;28;20037;-60
2021/11/10 10:23:16;;;;;;;17.50;13.77;;;7.30;99.90;;;;;;5053308;28;20055;-58
2021/11/10 10:25:47;;;;;;;38.42;16.50;;;7.40;99.90;;;;;;5053444;28;20049;-60
2021/11/10 10:28:41;;;;;;;30.80;15.18;;;7.60;99.90;;;;;;5053959;28;20037;-59
2021/11/10 10:31:12;;;;;;;17.05;12.43;;;7.70;99.90;;;;;;5054392;28;20037;-60
2021/11/10 10:33:45;;;;;;;22.17;14.55;;;7.80;99.90;;;;;;5053925;28;20127;-59
2021/11/10 10:36:19;;;;;;;35.50;16.27;;;7.90;99.90;;;;;;5055668;28;20100;-60
2021/11/10 10:38:47;;;;;;;24.63;14.57;;;8.10;99.90;;;;;;5054861;28;20029;-59
2021/11/10 10:41:16;;;;;;;23.63;13.27;;;8.00;99.90;;;;;;5053963;28;20045;-61
2021/11/10 10:43:54;;;;;;;19.38;14.57;;;8.10;99.90;;;;;;5053838;28;20090;-60
2021/11/10 10:46:25;;;;;;;16.00;12.65;;;8.30;99.90;;;;;;5054031;28;20025;-60
2021/11/10 10:48:51;;;;;;;20.70;13.02;;;8.30;99.80;;;;;;5054617;28;20029;-59
2021/11/10 10:51:18;;;;;;;22.77;13.63;;;8.20;99.90;;;;;;5053165;28;20033;-58
2021/11/10 10:53:50;;;;;;;16.65;12.70;;;8.30;99.90;;;;;;5054360;28;20408;-61
2021/11/10 10:56:32;;;;;;;16.48;12.77;;;8.40;99.90;;;;;;5054065;28;20033;-58
2021/11/10 10:59:06;;;;;;;17.98;12.45;;;8.50;99.70;;;;;;5053908;28;20128;-59
2021/11/10 11:01:41;;;;;;;17.23;11.73;;;8.50;99.60;;;;;;5053584;28;20043;-61
2021/11/10 11:04:12;;;;;;;15.75;12.55;;;8.60;99.60;;;;;;5053908;28;20655;-60
2021/11/10 11:06:49;;;;;;;20.63;14.45;;;8.50;99.80;;;;;;5053560;28;20456;-61
2021/11/10 11:09:19;;;;;;;24.63;14.18;;;8.60;99.70;;;;;;5053709;28;20032;-61
2021/11/10 11:12:05;;;;;;;24.95;13.32;;;8.60;99.70;;;;;;5052536;28;20036;-60
2021/11/10 11:17:36;;;;;;;23.85;12.65;;;8.50;99.90;;;;;;5053362;28;20159;-60
2021/11/10 11:20:40;;;;;;;22.80;13.45;;;8.50;99.90;;;;;;5052919;28;20033;-61
2021/11/10 11:23:06;;;;;;;14.95;12.30;;;8.50;99.90;;;;;;4953283;29;20534;-58
2021/11/10 11:25:39;;;;;;;17.75;12.40;;;8.50;99.90;;;;;;4953867;29;20095;-60
2021/11/10 11:28:16;;;;;;;18.90;12.07;;;8.50;99.90;;;;;;4995394;28;20026;-60
2021/11/10 11:30:44;;;;;;;17.30;13.20;;;8.40;99.90;;;;;;5033074;28;20485;-60
2021/11/10 11:33:13;;;;;;;17.77;12.30;;;8.50;99.90;;;;;;5032236;28;20026;-59
2021/11/10 11:35:44;;;;;;;14.32;12.10;;;8.50;99.90;;;;;;5033195;28;20045;-62
2021/11/10 11:38:12;;;;;;;16.80;12.70;;;8.50;99.90;;;;;;5033315;28;20486;-60
2021/11/10 11:40:39;;;;;;;17.42;12.02;;;8.60;99.90;;;;;;5033535;28;20033;-59
2021/11/10 11:43:10;;;;;;;16.50;11.80;;;8.60;99.90;;;;;;5033946;28;20022;-61
2021/11/10 11:45:39;;;;;;;13.75;11.75;;;8.60;99.90;;;;;;5034166;28;20397;-60
2021/11/10 11:48:06;;;;;;;25.83;14.05;;;8.80;99.90;;;;;;5033964;28;20377;-60
2021/11/10 11:50:32;;;;;;;15.60;12.32;;;9.00;99.90;;;;;;5035237;28;20561;-59
2021/11/10 11:52:58;;;;;;;15.75;11.32;;;8.90;99.90;;;;;;5035255;28;20489;-61
2021/11/10 11:55:35;;;;;;;17.52;11.45;;;9.00;99.90;;;;;;5033823;28;20064;-59
2021/11/10 11:58:04;;;;;;;17.05;11.55;;;9.10;99.90;;;;;;5033970;28;20041;-60
2021/11/10 12:00:35;;;;;;;16.73;12.18;;;9.10;99.90;;;;;;5032579;28;20029;-61
2021/11/10 12:03:01;;;;;;;20.33;11.70;;;9.30;99.90;;;;;;5014742;28;20030;-62
2021/11/10 12:05:28;;;;;;;16.20;11.93;;;9.40;99.70;;;;;;5033107;28;20032;-63
2021/11/10 12:07:58;;;;;;;15.93;11.40;;;9.40;99.80;;;;;;5033391;28;20025;-61
2021/11/10 12:10:33;;;;;;;17.27;11.02;;;9.60;99.50;;;;;;5032616;28;20037;-62
2021/11/10 12:13:12;;;;;;;17.05;11.18;;;9.50;99.60;;;;;;5033414;28;20076;-61
2021/11/10 12:16:20;;;;;;;14.27;11.75;;;9.50;99.70;;;;;;5033321;28;20045;-62
2021/11/10 12:18:49;;;;;;;17.42;10.93;;;9.50;99.80;;;;;;4991233;28;20042;-61
2021/11/10 12:21:19;;;;;;;13.30;11.52;;;9.70;99.70;;;;;;5045372;28;20447;-59
2021/11/10 12:23:54;;;;;;;15.38;11.48;;;9.70;99.80;;;;;;5052095;28;20489;-65
2021/11/10 12:26:23;;;;;;;13.88;10.68;;;9.90;99.40;;;;;;5052578;28;20075;-62
2021/11/10 12:28:55;;;;;;;14.27;10.90;;;9.80;99.20;;;;;;5052430;28;20033;-62
2021/11/10 12:31:33;;;;;;;15.52;11.07;;;9.90;99.10;;;;;;5052629;28;20181;-61
2021/11/10 12:34:02;;;;;;;11.60;10.20;;;9.90;99.30;;;;;;5035122;28;20025;-60
2021/11/10 12:36:56;;;;;;;13.60;10.90;;;10.10;99.10;;;;;;5035573;28;20043;-62
2021/11/10 12:39:32;;;;;;;12.23;9.50;;;10.20;98.80;;;;;;5051418;28;20086;-63
2021/11/10 12:42:09;;;;;;;14.32;9.73;;;10.30;98.80;;;;;;5052543;28;20029;-60
2021/11/10 12:44:49;;;;;;;13.18;9.32;;;10.40;98.40;;;;;;5055410;28;20028;-62